createdAt,value
2022-11-20T00:02:55.326Z,-0.86
2022-11-20T00:08:33.860Z,-0.89
2022-11-20T00:20:14.578Z,-0.99
2022-11-20T00:25:41.750Z,-1.01
2022-11-20T00:31:20.515Z,-1.02
2022-11-20T00:36:47.093Z,-1.08
2022-11-20T00:54:36.539Z,-1.17
2022-11-20T01:00:01.649Z,-1.21
2022-11-20T01:05:34.969Z,-1.21
2022-11-20T01:11:13.501Z,-1.24
2022-11-20T01:16:47.477Z,-1.27
2022-11-20T01:22:23.732Z,-1.28
2022-11-20T01:28:13.624Z,-1.30
2022-11-20T01:33:40.820Z,-1.34
2022-11-20T01:39:46.622Z,-1.36
2022-11-20T01:45:46.433Z,-1.39
2022-11-20T01:51:38.812Z,-1.43
2022-11-20T01:57:12.580Z,-1.47
2022-11-20T02:02:36.915Z,-1.48
2022-11-20T02:08:09.519Z,-1.52
2022-11-20T02:13:48.137Z,-1.53
2022-11-20T02:19:25.875Z,-1.56
2022-11-20T02:25:09.607Z,-1.58
2022-11-20T02:30:35.259Z,-1.61
2022-11-20T02:36:03.549Z,-1.60
2022-11-20T02:41:37.373Z,-1.58
2022-11-20T02:47:18.475Z,-1.61
2022-11-20T02:52:45.138Z,-1.62
2022-11-20T02:58:13.310Z,-1.65
2022-11-20T03:03:48.588Z,-1.65
2022-11-20T03:09:24.883Z,-1.70
2022-11-20T03:15:04.505Z,-1.72
2022-11-20T03:20:29.676Z,-1.72
2022-11-20T03:25:55.069Z,-1.73
2022-11-20T03:31:27.306Z,-1.72
2022-11-20T03:36:54.798Z,-1.73
2022-11-20T03:42:34.001Z,-1.74
2022-11-20T03:48:01.796Z,-1.79
2022-11-20T03:53:32.335Z,-1.81
2022-11-20T03:58:57.353Z,-1.84
2022-11-20T04:04:24.767Z,-1.84
2022-11-20T04:09:57.562Z,-1.90
2022-11-20T04:15:22.685Z,-1.92
2022-11-20T04:21:05.961Z,-1.92
2022-11-20T04:26:39.653Z,-1.94
2022-11-20T04:32:07.082Z,-2.02
2022-11-20T04:37:36.701Z,-2.02
2022-11-20T04:43:12.238Z,-2.01
2022-11-20T04:48:41.559Z,-2.01
2022-11-20T04:54:16.370Z,-2.03
2022-11-20T04:59:51.497Z,-2.05
2022-11-20T05:05:19.150Z,-2.07
2022-11-20T05:11:21.196Z,-2.07
2022-11-20T05:16:48.374Z,-2.10
2022-11-20T05:22:14.418Z,-2.15
2022-11-20T05:27:53.063Z,-2.17
2022-11-20T05:33:30.051Z,-2.21
2022-11-20T05:38:59.731Z,-2.25
2022-11-20T05:44:33.439Z,-2.27
2022-11-20T05:49:56.936Z,-2.30
2022-11-20T05:55:22.224Z,-2.29
2022-11-20T06:00:51.114Z,-2.31
2022-11-20T06:06:15.434Z,-2.30
2022-11-20T06:11:39.863Z,-2.35
2022-11-20T06:17:07.373Z,-2.36
2022-11-20T06:22:40.165Z,-2.37
2022-11-20T06:28:05.593Z,-2.38
2022-11-20T06:33:33.787Z,-2.36
2022-11-20T06:39:03.736Z,-2.37
2022-11-20T06:44:41.644Z,-2.37
2022-11-20T06:50:29.576Z,-2.38
2022-11-20T06:55:59.217Z,-2.35
2022-11-20T07:01:25.678Z,-2.36
2022-11-20T07:07:12.118Z,-2.36
2022-11-20T07:12:45.078Z,-2.35
2022-11-20T07:18:16.548Z,-2.34
2022-11-20T07:23:52.527Z,-2.28
2022-11-20T07:29:36.666Z,-2.21
2022-11-20T07:35:18.147Z,-2.14
2022-11-20T07:40:57.361Z,-2.05
2022-11-20T07:52:06.520Z,-1.90
2022-11-20T07:57:46.849Z,-1.76
2022-11-20T08:03:32.291Z,-1.66
2022-11-20T08:09:18.202Z,-1.51
2022-11-20T08:15:11.341Z,-1.40
2022-11-20T08:20:40.675Z,-1.19
2022-11-20T08:26:07.659Z,-1.03
2022-11-20T08:50:45.266Z,-0.15
2022-11-20T08:56:31.161Z,0.04
2022-11-20T09:01:56.749Z,0.22
2022-11-20T09:07:31.226Z,0.35
2022-11-20T09:12:57.616Z,0.39
2022-11-20T09:18:22.871Z,0.58
2022-11-20T09:23:57.189Z,0.69
2022-11-20T09:41:29.319Z,0.99
2022-11-20T09:47:02.373Z,1.05
2022-11-20T09:52:36.929Z,1.19
2022-11-20T09:58:05.844Z,1.30
2022-11-20T10:16:17.913Z,1.96
2022-11-20T10:22:01.275Z,1.91
2022-11-20T10:28:17.666Z,1.97
2022-11-20T10:34:12.035Z,1.93
2022-11-20T10:40:01.706Z,1.81
2022-11-20T10:46:06.859Z,1.79
2022-11-20T10:52:08.700Z,1.99
2022-11-20T10:58:05.414Z,2.13
2022-11-20T11:10:00.354Z,2.26
2022-11-20T11:15:36.057Z,2.43
2022-11-20T11:21:04.050Z,2.67
2022-11-20T11:26:33.065Z,2.73
2022-11-20T11:32:11.571Z,2.66
2022-11-20T11:37:44.225Z,2.61
2022-11-20T11:43:47.641Z,2.64
2022-11-20T11:49:25.440Z,2.61
2022-11-20T11:54:55.280Z,2.64
2022-11-20T12:00:25.076Z,2.64
2022-11-20T12:06:02.178Z,2.60
2022-11-20T12:11:47.369Z,2.67
2022-11-20T12:17:27.993Z,2.73
2022-11-20T12:23:03.281Z,2.78
2022-11-20T12:28:46.835Z,2.80
2022-11-20T12:34:34.078Z,2.84
2022-11-20T12:40:20.858Z,2.77
2022-11-20T12:46:25.487Z,2.77
2022-11-20T12:52:21.075Z,2.75
2022-11-20T12:57:59.943Z,2.72
2022-11-20T13:03:50.968Z,2.77
2022-11-20T13:09:25.239Z,2.79
2022-11-20T13:15:40.028Z,2.77
2022-11-20T13:21:04.107Z,2.72
2022-11-20T13:26:35.361Z,2.67
2022-11-20T13:32:18.185Z,2.68
2022-11-20T13:37:50.984Z,2.64
2022-11-20T13:43:35.082Z,2.57
2022-11-20T13:49:17.513Z,2.57
2022-11-20T13:55:09.555Z,2.53
2022-11-20T14:01:04.854Z,2.55
2022-11-20T14:06:36.482Z,2.52
2022-11-20T14:12:07.114Z,2.48
2022-11-20T14:17:42.534Z,2.50
2022-11-20T14:23:29.772Z,2.47
2022-11-20T14:29:10.841Z,2.43
2022-11-20T14:35:08.659Z,2.41
2022-11-20T14:40:45.637Z,2.35
2022-11-20T14:46:20.223Z,2.30
2022-11-20T14:51:54.330Z,2.27
2022-11-20T14:57:38.685Z,2.26
2022-11-20T15:03:34.066Z,2.20
2022-11-20T15:09:14.009Z,2.11
2022-11-20T15:20:54.088Z,1.93
2022-11-20T15:26:29.531Z,1.85
2022-11-20T15:32:16.126Z,1.75
2022-11-20T15:38:07.639Z,1.68
2022-11-20T15:43:31.687Z,1.60
2022-11-20T15:55:09.779Z,1.45
2022-11-20T16:00:50.316Z,1.40
2022-11-20T16:06:32.314Z,1.34
2022-11-20T16:12:10.885Z,1.27
2022-11-20T16:17:46.399Z,1.19
2022-11-20T16:23:26.028Z,1.14
2022-11-20T16:28:48.730Z,1.09
2022-11-20T16:34:17.041Z,1.03
2022-11-20T16:39:51.881Z,0.99
2022-11-20T16:45:33.758Z,0.96
2022-11-20T16:51:01.111Z,0.90
2022-11-20T16:56:36.233Z,0.88
2022-11-20T17:02:21.439Z,0.84
2022-11-20T17:14:03.540Z,0.77
2022-11-20T17:19:38.568Z,0.75
2022-11-20T17:25:10.200Z,0.72
2022-11-20T17:31:22.464Z,0.71
2022-11-20T17:36:52.713Z,0.66
2022-11-20T17:42:47.918Z,0.65
2022-11-20T17:48:21.070Z,0.58
2022-11-20T17:54:03.364Z,0.55
2022-11-20T17:59:43.437Z,0.48
2022-11-20T18:05:12.588Z,0.44
2022-11-20T18:10:50.920Z,0.42
2022-11-20T18:16:20.751Z,0.40
2022-11-20T18:21:49.019Z,0.41
2022-11-20T18:27:33.392Z,0.45
2022-11-20T18:33:00.297Z,0.45
2022-11-20T18:38:28.654Z,0.44
2022-11-20T18:44:16.152Z,0.49
2022-11-20T18:49:41.444Z,0.50
2022-11-20T19:00:46.938Z,0.62
2022-11-20T19:06:24.404Z,0.67
2022-11-20T19:11:50.256Z,0.73
2022-11-20T19:17:18.515Z,0.74
2022-11-20T19:22:48.419Z,0.87
2022-11-20T19:28:41.910Z,0.87
2022-11-20T19:34:46.373Z,0.96
2022-11-20T19:40:19.361Z,1.13
2022-11-20T19:51:46.164Z,1.36
2022-11-20T19:57:12.425Z,1.45
2022-11-20T20:02:39.391Z,1.54
2022-11-20T20:08:05.999Z,1.55
2022-11-20T20:13:29.726Z,1.57
2022-11-20T20:18:59.884Z,1.55
2022-11-20T20:24:41.947Z,1.65
2022-11-20T20:30:23.511Z,1.76
2022-11-20T20:35:46.224Z,1.82
2022-11-20T20:41:25.135Z,1.90
2022-11-20T20:47:06.421Z,1.99
2022-11-20T20:52:38.259Z,2.01
2022-11-20T20:58:10.328Z,2.06
2022-11-20T21:03:35.691Z,2.10
2022-11-20T21:09:08.026Z,2.16
2022-11-20T21:14:54.322Z,2.27
2022-11-20T21:20:33.452Z,2.26
2022-11-20T21:26:12.199Z,2.28
2022-11-20T21:31:47.589Z,2.34
2022-11-20T21:37:14.350Z,2.32
2022-11-20T21:42:43.360Z,2.26
2022-11-20T21:48:19.418Z,2.27
2022-11-20T21:53:46.126Z,2.21
2022-11-20T21:59:27.253Z,2.24
2022-11-20T22:10:38.414Z,2.24
2022-11-20T22:16:12.143Z,2.28
2022-11-20T22:21:38.181Z,2.29
2022-11-20T22:27:07.500Z,2.29
2022-11-20T22:32:37.090Z,2.17
2022-11-20T22:38:20.492Z,2.13
2022-11-20T22:44:08.449Z,2.14
2022-11-20T22:49:36.819Z,2.08
2022-11-20T22:55:16.313Z,2.06
2022-11-20T23:01:01.600Z,2.14
2022-11-20T23:06:29.739Z,2.19
2022-11-20T23:17:58.336Z,2.20
2022-11-20T23:23:22.911Z,2.20
2022-11-20T23:29:12.975Z,2.18
2022-11-20T23:34:46.064Z,2.24
2022-11-20T23:40:16.511Z,2.19
2022-11-20T23:45:48.881Z,2.26
2022-11-20T23:56:54.445Z,2.30
